Time;durP1;ratioP1;P1;durP2;ratioP2;P2;SDS_P1;SDS_P2;PMS_P1;PMS_P2;Temp;Humidity;BMP_temperature;BMP_pressure;BME280_temperature;BME280_humidity;BME280_pressure;Samples;Min_cycle;Max_cycle;Signal;HPM_P1;HPM_P2
2023/11/29 00:00:25;;;;;;;2.58;1.30;;;;;;;0.87;75.00;91546.44;2050868;70;20137;-83
2023/11/29 00:02:51;;;;;;;6.38;2.40;;;;;;;0.88;75.86;91545.88;2054091;70;20189;-82
2023/11/29 00:05:17;;;;;;;4.78;2.70;;;;;;;0.63;77.23;91548.06;2053631;70;20320;-83
2023/11/29 00:31:10;;;;;;;3.90;2.05;;;;;;;1.19;75.45;91567.59;2054550;70;20172;-85
2023/11/29 00:34:02;;;;;;;6.53;2.80;;;;;;;1.20;75.79;91572.56;2054437;70;20189;-82
2023/11/29 00:36:27;;;;;;;4.38;2.45;;;;;;;1.25;75.50;91566.03;2054850;70;20157;-83
2023/11/29 00:39:02;;;;;;;5.32;2.28;;;;;;;1.23;74.75;91565.84;2051255;70;20281;-82
2023/11/29 00:41:28;;;;;;;3.45;2.20;;;;;;;1.26;75.09;91577.84;2054696;70;20590;-83
2023/11/29 00:43:53;;;;;;;3.15;2.00;;;;;;;1.27;74.66;91568.22;2051272;70;20240;-83
2023/11/29 00:46:19;;;;;;;5.22;2.45;;;;;;;1.02;75.25;91565.63;2051294;70;20165;-82
2023/11/29 00:48:45;;;;;;;3.97;2.20;;;;;;;1.17;75.35;91570.22;2054407;70;20220;-84
2023/11/29 00:51:11;;;;;;;4.20;2.28;;;;;;;1.21;75.68;91560.16;2053225;70;20157;-83
2023/11/29 00:53:37;;;;;;;3.15;2.03;;;;;;;1.15;75.11;91567.31;2051080;70;20166;-83
2023/11/29 00:56:06;;;;;;;3.58;1.80;;;;;;;1.15;74.71;91564.53;2054575;70;20537;-84
2023/11/29 00:58:32;;;;;;;3.17;1.90;;;;;;;1.11;74.87;91567.00;2054559;70;20537;-82
2023/11/29 01:00:58;;;;;;;2.95;1.92;;;;;;;1.06;74.60;91571.50;2051227;70;20138;-83
2023/11/29 01:03:23;;;;;;;2.97;1.60;;;;;;;1.09;74.21;91572.38;2054583;70;20740;-82
2023/11/29 01:05:49;;;;;;;3.00;1.70;;;;;;;1.07;74.52;91566.69;2051255;70;20491;-82
2023/11/29 01:08:16;;;;;;;5.97;1.75;;;;;;;0.93;74.65;91564.28;2051413;70;20146;-82
2023/11/29 01:10:43;;;;;;;3.08;1.67;;;;;;;1.02;74.96;91571.19;2054577;70;20213;-83
2023/11/29 01:13:12;;;;;;;5.32;1.85;;;;;;;0.82;75.21;91569.59;2048599;70;20146;-83
2023/11/29 01:15:38;;;;;;;1.83;1.60;;;;;;;0.87;75.36;91588.00;2054671;70;20152;-83
2023/11/29 01:18:04;;;;;;;2.72;1.65;;;;;;;0.90;74.71;91582.06;2054318;70;20157;-85
2023/11/29 01:20:29;;;;;;;1.67;1.17;;;;;;;0.89;74.39;91583.38;2054659;70;20146;-84
2023/11/29 01:22:55;;;;;;;3.35;1.98;;;;;;;0.78;75.14;91586.66;2050973;70;20134;-85
2023/11/29 01:25:21;;;;;;;3.53;2.03;;;;;;;0.71;75.26;91591.00;2051357;70;20146;-83
2023/11/29 01:27:50;;;;;;;3.10;1.90;;;;;;;0.72;74.82;91588.94;2050976;70;20174;-83
2023/11/29 01:30:17;;;;;;;3.95;2.30;;;;;;;0.66;75.48;91586.44;2054468;70;20333;-83
2023/11/29 01:32:44;;;;;;;4.70;2.45;;;;;;;0.61;75.24;91589.47;2054322;70;20174;-83
2023/11/29 01:35:15;;;;;;;4.25;2.20;;;;;;;0.68;75.25;91596.94;2054429;69;20149;-84
2023/11/29 01:37:42;;;;;;;4.63;2.40;;;;;;;0.62;75.31;91591.66;2054433;70;20587;-84
2023/11/29 01:40:11;;;;;;;3.88;2.00;;;;;;;0.62;75.41;91599.97;2053856;70;20260;-84
2023/11/29 01:42:43;;;;;;;3.88;1.83;;;;;;;0.59;75.19;91603.16;2051089;70;20196;-85
2023/11/29 01:45:16;;;;;;;3.00;2.00;;;;;;;0.41;76.44;91605.97;2054273;70;20145;-85
2023/11/29 01:47:44;;;;;;;3.53;2.28;;;;;;;0.48;75.74;91612.69;2050913;70;20182;-84
2023/11/29 01:50:16;;;;;;;2.30;1.58;;;;;;;0.25;75.29;91588.78;2054121;70;20173;-84
2023/11/29 01:52:44;;;;;;;2.20;1.55;;;;;;;0.49;75.35;91616.94;2051410;70;20703;-86
2023/11/29 01:55:12;;;;;;;3.53;1.60;;;;;;;0.43;75.16;91617.19;2050819;70;20209;-85
2023/11/29 01:57:43;;;;;;;3.28;1.40;;;;;;;0.35;74.88;91624.84;2048301;70;20201;-84
2023/11/29 02:00:11;;;;;;;2.33;1.30;;;;;;;0.39;75.02;91622.41;2054559;70;20623;-83
2023/11/29 02:02:44;;;;;;;3.33;1.23;;;;;;;0.38;74.81;91620.22;2054384;70;20149;-85
2023/11/29 02:05:10;;;;;;;1.88;1.10;;;;;;;0.30;74.44;91616.78;2054339;70;20133;-84
2023/11/29 02:07:40;;;;;;;2.42;1.25;;;;;;;0.23;74.05;91623.88;2051197;70;20142;-86
2023/11/29 02:10:07;;;;;;;1.83;1.27;;;;;;;0.22;74.32;91623.13;2054353;70;20142;-84
2023/11/29 02:12:33;;;;;;;2.10;1.10;;;;;;;0.23;74.03;91626.66;2054340;70;20146;-83
2023/11/29 02:14:59;;;;;;;1.25;1.02;;;;;;;0.18;73.99;91617.28;2054305;70;20122;-83
2023/11/29 02:17:31;;;;;;;1.35;0.95;;;;;;;0.22;74.14;91614.81;2050979;70;20624;-85
2023/11/29 02:19:57;;;;;;;1.75;1.00;;;;;;;0.25;74.08;91610.19;2054120;70;20239;-81
2023/11/29 02:22:27;;;;;;;1.50;1.00;;;;;;;0.19;73.71;91615.25;2050827;70;20177;-82
2023/11/29 02:24:53;;;;;;;3.30;1.10;;;;;;;0.05;73.61;91614.13;2054205;70;20143;-84
2023/11/29 02:27:20;;;;;;;7.15;3.28;;;;;;;-0.09;74.62;91619.97;2051096;70;20138;-85
2023/11/29 02:29:49;;;;;;;2.75;1.80;;;;;;;-0.04;74.20;91602.38;2051352;70;20210;-84
2023/11/29 02:32:15;;;;;;;3.60;1.88;;;;;;;0.03;74.30;91617.44;2050750;70;20618;-83
2023/11/29 02:34:44;;;;;;;4.75;1.90;;;;;;;-0.07;73.98;91605.56;2054257;70;20189;-82
2023/11/29 02:37:11;;;;;;;3.78;2.10;;;;;;;-0.08;73.95;91612.41;2050700;70;20164;-84
2023/11/29 02:39:40;;;;;;;4.40;2.40;;;;;;;-0.06;74.23;91623.63;2054019;70;20145;-84
2023/11/29 02:42:10;;;;;;;3.45;1.95;;;;;;;-0.07;74.10;91619.38;2050718;70;20153;-83
2023/11/29 02:44:37;;;;;;;2.28;1.58;;;;;;;-0.22;74.24;91625.06;2054339;70;20157;-85
2023/11/29 02:47:03;;;;;;;2.13;1.30;;;;;;;-0.28;73.86;91614.97;2054161;70;20217;-83
2023/11/29 02:49:29;;;;;;;1.60;1.27;;;;;;;-0.23;73.93;91618.06;2054155;70;20150;-84
2023/11/29 02:51:58;;;;;;;2.28;1.45;;;;;;;-0.28;73.97;91617.72;2050767;70;20146;-84
2023/11/29 02:54:24;;;;;;;3.90;1.60;;;;;;;-0.39;74.27;91620.97;2054384;70;20557;-83
2023/11/29 02:56:50;;;;;;;2.10;1.70;;;;;;;-0.34;75.06;91625.53;2054315;70;20967;-83
2023/11/29 02:59:16;;;;;;;2.30;1.30;;;;;;;-0.46;74.61;91621.75;2054295;70;20150;-84
2023/11/29 03:01:41;;;;;;;2.58;1.40;;;;;;;-0.39;75.05;91618.19;2053997;70;20157;-83
2023/11/29 03:04:07;;;;;;;2.88;1.45;;;;;;;-0.42;74.25;91610.31;2047349;70;20197;-84
2023/11/29 03:06:34;;;;;;;2.60;1.40;;;;;;;-0.40;74.84;91613.97;2051018;70;20150;-83
2023/11/29 03:08:59;;;;;;;1.90;1.50;;;;;;;-0.42;74.44;91613.06;2050770;70;20234;-83
2023/11/29 03:11:25;;;;;;;2.28;1.23;;;;;;;-0.52;73.87;91616.47;2050891;70;20169;-83
2023/11/29 03:13:52;;;;;;;1.75;1.30;;;;;;;-0.49;73.83;91609.06;2050756;70;20900;-83
2023/11/29 03:16:17;;;;;;;1.45;1.20;;;;;;;-0.56;74.51;91615.41;2048285;70;20184;-85
2023/11/29 03:18:43;;;;;;;4.15;1.65;;;;;;;-0.80;75.55;91620.38;2054152;70;20161;-85
2023/11/29 03:21:16;;;;;;;4.38;1.80;;;;;;;-1.16;78.51;91620.06;2050892;70;20232;-86
2023/11/29 03:23:46;;;;;;;2.90;1.63;;;;;;;-0.82;76.80;91622.25;2051260;70;20231;-85
2023/11/29 03:26:12;;;;;;;2.70;1.60;;;;;;;-0.74;75.99;91622.16;2052786;70;20249;-84
2023/11/29 03:28:38;;;;;;;3.30;1.70;;;;;;;-0.73;75.77;91621.63;2054104;70;20164;-83
2023/11/29 03:31:04;;;;;;;2.45;1.60;;;;;;;-0.69;75.79;91613.66;2050909;70;20213;-85
2023/11/29 03:33:33;;;;;;;3.78;1.80;;;;;;;-0.73;75.13;91626.38;2048140;70;20134;-83
2023/11/29 03:35:59;;;;;;;2.55;1.50;;;;;;;-0.72;75.60;91617.56;2050745;70;20144;-84
2023/11/29 03:38:24;;;;;;;1.85;1.50;;;;;;;-0.71;75.45;91621.78;2050724;70;20187;-84
2023/11/29 03:40:50;;;;;;;2.83;1.60;;;;;;;-0.71;75.19;91621.06;2050629;70;20134;-84
2023/11/29 03:43:16;;;;;;;4.63;2.00;;;;;;;-0.93;75.70;91608.84;2054303;70;20612;-82
2023/11/29 03:45:42;;;;;;;3.30;1.73;;;;;;;-1.02;75.87;91601.91;2054255;70;20524;-83
2023/11/29 03:48:07;;;;;;;1.70;1.40;;;;;;;-0.92;75.43;91619.34;2050600;70;20166;-85
2023/11/29 03:50:33;;;;;;;2.65;1.70;;;;;;;-0.92;75.59;91608.28;2050954;70;20150;-83
2023/11/29 03:52:59;;;;;;;2.65;2.00;;;;;;;-1.04;76.62;91616.28;2048566;70;20138;-82
2023/11/29 03:55:25;;;;;;;3.20;1.70;;;;;;;-0.89;75.76;91620.97;2054754;70;20149;-84
2023/11/29 03:57:50;;;;;;;2.30;1.60;;;;;;;-0.92;74.99;91611.03;2054707;70;20677;-82
2023/11/29 04:00:17;;;;;;;2.00;1.70;;;;;;;-0.92;75.16;91619.34;2051153;70;20146;-83
2023/11/29 04:02:43;;;;;;;3.75;1.60;;;;;;;-1.11;76.61;91605.28;2054292;70;20216;-82
2023/11/29 04:05:13;;;;;;;2.72;2.13;;;;;;;-1.11;77.16;91619.81;2051121;70;20146;-83
2023/11/29 04:07:41;;;;;;;3.67;2.00;;;;;;;-1.10;75.90;91626.09;2054643;70;20152;-83
2023/11/29 04:10:07;;;;;;;3.78;1.90;;;;;;;-1.10;76.21;91626.84;2054655;70;20161;-83
2023/11/29 04:12:32;;;;;;;3.72;2.10;;;;;;;-1.04;76.08;91624.59;2051267;70;20147;-85
2023/11/29 04:14:58;;;;;;;2.42;1.70;;;;;;;-1.19;75.41;91626.69;2051213;70;20275;-84
2023/11/29 04:17:24;;;;;;;2.80;1.67;;;;;;;-1.21;75.02;91629.28;2051062;70;20169;-83
2023/11/29 04:19:50;;;;;;;6.15;1.92;;;;;;;-1.07;75.56;91627.72;2051402;70;20154;-84
2023/11/29 04:22:16;;;;;;;4.63;1.60;;;;;;;-1.27;75.65;91626.75;2051448;70;20510;-83
2023/11/29 04:24:42;;;;;;;3.13;1.65;;;;;;;-1.27;75.42;91610.19;2054371;70;20176;-83
2023/11/29 04:27:07;;;;;;;4.28;1.52;;;;;;;-1.22;75.04;91628.56;2054614;70;20557;-83
2023/11/29 04:29:36;;;;;;;4.10;1.70;;;;;;;-1.39;76.15;91634.72;2051341;70;20177;-84
2023/11/29 04:32:02;;;;;;;2.13;1.70;;;;;;;-1.31;76.22;91634.69;2048431;70;20571;-83
2023/11/29 04:34:29;;;;;;;2.65;1.70;;;;;;;-1.23;75.56;91637.41;2051043;70;20193;-86
2023/11/29 04:36:57;;;;;;;3.33;1.85;;;;;;;-1.23;75.44;91640.16;2054264;70;20156;-83
2023/11/29 04:39:27;;;;;;;2.17;1.85;;;;;;;-1.21;75.90;91643.09;2054407;70;20224;-83
2023/11/29 04:41:54;;;;;;;2.33;1.77;;;;;;;-1.21;75.85;91641.06;2051159;70;20378;-85
2023/11/29 04:44:20;;;;;;;14.23;5.55;;;;;;;-1.32;76.45;91636.72;2050891;70;20156;-82
2023/11/29 04:46:46;;;;;;;37.28;15.43;;;;;;;-1.40;75.96;91618.72;2054226;70;20169;-85
2023/11/29 04:49:12;;;;;;;301.20;79.80;;;;;;;-1.48;76.73;91624.25;2050755;70;20138;-82
2023/11/29 04:51:38;;;;;;;15.32;8.23;;;;;;;-1.46;77.25;91626.47;2051234;70;20513;-81
2023/11/29 04:54:04;;;;;;;26.98;10.63;;;;;;;-1.41;77.25;91626.25;2054175;70;20170;-85
2023/11/29 04:56:29;;;;;;;48.25;15.45;;;;;;;-1.37;76.46;91623.13;2051548;70;20671;-83
2023/11/29 04:58:55;;;;;;;80.45;23.48;;;;;;;-1.35;76.33;91623.28;2054211;70;20153;-83
2023/11/29 05:01:21;;;;;;;78.05;23.65;;;;;;;-1.36;77.21;91624.59;2051037;70;20491;-84
2023/11/29 05:03:47;;;;;;;17.48;7.10;;;;;;;-1.45;76.79;91620.38;2053879;70;20146;-82
2023/11/29 05:06:15;;;;;;;21.10;7.22;;;;;;;-1.44;76.34;91618.38;2054256;70;20161;-84
2023/11/29 05:08:41;;;;;;;15.52;6.35;;;;;;;-1.42;76.50;91621.28;2054171;70;20232;-85
2023/11/29 05:11:07;;;;;;;13.65;5.85;;;;;;;-1.57;75.82;91620.06;2054604;70;20589;-84
2023/11/29 05:13:32;;;;;;;11.65;5.65;;;;;;;-1.58;75.69;91626.16;2054521;70;20172;-83
2023/11/29 05:15:58;;;;;;;14.52;5.72;;;;;;;-1.55;75.95;91625.78;2054487;70;20241;-84
2023/11/29 05:18:24;;;;;;;18.83;6.97;;;;;;;-1.54;75.03;91638.28;2054414;70;20216;-85
2023/11/29 05:20:54;;;;;;;19.95;8.55;;;;;;;-1.62;75.23;91634.81;2052856;70;20257;-83
2023/11/29 05:23:21;;;;;;;17.15;6.80;;;;;;;-1.66;74.70;91628.22;2047393;70;20245;-85
2023/11/29 05:25:46;;;;;;;17.58;7.97;;;;;;;-1.56;75.29;91646.41;2047284;70;20154;-84
2023/11/29 05:28:12;;;;;;;18.27;8.15;;;;;;;-1.59;75.19;91652.28;2047742;70;20142;-86
2023/11/29 05:30:38;;;;;;;22.70;8.63;;;;;;;-1.61;75.27;91647.31;2047620;70;20238;-86
2023/11/29 05:33:05;;;;;;;18.45;8.40;;;;;;;-1.93;75.92;91630.69;2047340;70;20162;-84
2023/11/29 05:35:31;;;;;;;24.52;9.77;;;;;;;-1.64;75.56;91656.72;2047676;70;20147;-83
2023/11/29 05:37:57;;;;;;;18.75;8.18;;;;;;;-1.62;75.51;91653.41;2047382;70;20684;-84
2023/11/29 05:40:23;;;;;;;15.15;6.90;;;;;;;-1.87;76.60;91645.03;2047494;70;20155;-83
2023/11/29 05:42:50;;;;;;;17.73;6.78;;;;;;;-1.91;76.05;91653.69;2044565;70;20142;-87
2023/11/29 05:45:16;;;;;;;19.35;7.88;;;;;;;-1.80;76.05;91653.25;2047568;70;20167;-83
2023/11/29 05:47:42;;;;;;;17.27;8.77;;;;;;;-1.79;75.89;91654.00;2047434;70;20157;-84
2023/11/29 05:50:11;;;;;;;19.48;8.07;;;;;;;-1.86;75.42;91655.50;2047641;70;20158;-84
2023/11/29 05:52:36;;;;;;;16.88;7.55;;;;;;;-1.84;75.65;91649.41;2047635;70;20233;-84
2023/11/29 05:55:03;;;;;;;15.07;7.35;;;;;;;-1.93;77.13;91661.75;2047680;70;20150;-86
2023/11/29 05:57:29;;;;;;;18.23;7.95;;;;;;;-1.85;76.56;91662.47;2047661;70;20146;-86
2023/11/29 06:00:18;;;;;;;11.52;5.50;;;;;;;-1.86;77.27;91655.50;2047553;70;20209;-83
2023/11/29 06:02:44;;;;;;;16.25;7.38;;;;;;;-1.73;76.53;91668.34;2047720;70;20705;-84
2023/11/29 06:05:10;;;;;;;14.63;6.22;;;;;;;-1.73;76.30;91670.38;2047530;70;20146;-84
2023/11/29 06:07:38;;;;;;;20.20;7.45;;;;;;;-1.97;75.76;91660.66;2047439;70;20538;-83
2023/11/29 06:10:05;;;;;;;18.30;10.20;;;;;;;-2.08;76.54;91657.00;2047627;70;20532;-82
2023/11/29 06:12:32;;;;;;;7.57;4.65;;;;;;;-1.96;75.16;91662.88;2044335;70;20150;-83
2023/11/29 06:14:57;;;;;;;5.43;3.17;;;;;;;-1.88;74.77;91657.34;2047481;70;20229;-82
2023/11/29 06:17:23;;;;;;;4.13;2.33;;;;;;;-1.82;74.29;91660.66;2047431;70;20157;-83
2023/11/29 06:19:50;;;;;;;2.67;1.80;;;;;;;-1.81;73.48;91651.81;2047639;70;20594;-84
2023/11/29 06:22:15;;;;;;;3.63;2.40;;;;;;;-1.70;73.83;91658.19;2047522;70;20151;-84
2023/11/29 06:24:41;;;;;;;17.08;8.60;;;;;;;-1.80;73.90;91655.28;2047786;70;20225;-82
2023/11/29 06:27:07;;;;;;;16.70;8.38;;;;;;;-1.70;73.64;91660.97;2047620;70;20143;-83
2023/11/29 06:29:33;;;;;;;9.05;5.13;;;;;;;-1.70;74.07;91664.44;2047611;70;20164;-83
2023/11/29 06:31:58;;;;;;;6.65;3.92;;;;;;;-1.63;73.75;91662.97;2049996;70;20150;-83
2023/11/29 06:34:24;;;;;;;5.85;2.97;;;;;;;-1.57;72.58;91672.50;2050671;70;20172;-81
2023/11/29 06:36:50;;;;;;;5.15;2.80;;;;;;;-1.59;72.64;91668.84;2050701;70;20546;-84
2023/11/29 06:39:19;;;;;;;4.63;2.30;;;;;;;-1.50;71.76;91679.31;2050839;70;20213;-84
2023/11/29 06:41:47;;;;;;;8.25;3.75;;;;;;;-1.58;72.45;91684.13;2047575;70;20170;-83
2023/11/29 06:44:13;;;;;;;8.63;4.07;;;;;;;-2.08;73.81;91672.81;2047595;70;20300;-81
2023/11/29 06:46:39;;;;;;;8.07;3.58;;;;;;;-1.97;74.10;91685.50;2050848;70;20146;-81
2023/11/29 06:49:09;;;;;;;5.93;3.42;;;;;;;-1.67;73.75;91682.66;2051030;70;20174;-81
2023/11/29 06:51:36;;;;;;;5.05;3.13;;;;;;;-1.66;70.01;91691.69;2050985;70;20166;-82
2023/11/29 06:54:02;;;;;;;3.35;2.40;;;;;;;-1.52;69.01;91698.44;2050866;70;20214;-83
2023/11/29 06:56:28;;;;;;;9.73;5.20;;;;;;;-1.39;68.30;91692.69;2050882;70;20394;-81
2023/11/29 06:58:53;;;;;;;7.78;4.57;;;;;;;-1.31;69.15;91695.44;2050843;70;20146;-82
2023/11/29 07:01:20;;;;;;;11.68;5.68;;;;;;;-1.16;69.34;91694.63;2051031;70;20145;-81
2023/11/29 07:03:45;;;;;;;6.25;3.60;;;;;;;-1.10;69.28;91706.94;2050641;70;20162;-82
2023/11/29 07:06:24;;;;;;;5.85;3.65;;;;;;;-1.02;69.58;91696.56;2050905;70;20221;-81
2023/11/29 07:08:50;;;;;;;7.53;3.60;;;;;;;-0.98;68.14;91704.47;2050844;70;20172;-81
2023/11/29 07:11:16;;;;;;;8.27;4.45;;;;;;;-1.09;68.93;91699.38;2050943;70;20607;-81
2023/11/29 07:13:42;;;;;;;8.65;3.40;;;;;;;-1.25;67.06;91709.75;2050842;70;20141;-82
2023/11/29 07:16:09;;;;;;;5.30;3.53;;;;;;;-1.47;67.03;91708.53;2050826;70;20595;-82
2023/11/29 07:18:34;;;;;;;3.40;2.08;;;;;;;-1.49;64.39;91718.69;2050654;70;20168;-82
2023/11/29 07:21:00;;;;;;;6.13;2.85;;;;;;;-1.39;65.00;91725.09;2050810;70;20511;-82
2023/11/29 07:23:25;;;;;;;3.75;2.45;;;;;;;-0.92;64.80;91715.31;2051052;70;20591;-82
2023/11/29 07:25:51;;;;;;;5.80;2.40;;;;;;;-0.75;65.67;91718.16;2051694;70;20178;-82
2023/11/29 07:28:17;;;;;;;5.18;2.33;;;;;;;-0.70;65.63;91722.75;2048189;70;20221;-81
2023/11/29 07:30:43;;;;;;;6.05;2.22;;;;;;;-1.00;63.67;91729.19;2051316;70;20483;-82
2023/11/29 07:33:09;;;;;;;5.38;2.20;;;;;;;-0.77;64.14;91720.75;2051188;70;20174;-82
2023/11/29 07:35:34;;;;;;;2.58;2.00;;;;;;;-0.78;63.69;91720.03;2051345;70;20181;-82
2023/11/29 07:38:00;;;;;;;6.68;2.30;;;;;;;-0.93;61.81;91722.13;2051336;70;20149;-82
2023/11/29 07:40:26;;;;;;;6.75;2.47;;;;;;;-0.84;62.62;91721.53;2051275;70;20154;-81
2023/11/29 07:42:51;;;;;;;5.10;2.60;;;;;;;-0.47;61.60;91728.13;2051341;70;20163;-81
2023/11/29 07:45:17;;;;;;;9.05;4.03;;;;;;;-0.79;61.92;91715.06;2048116;70;20146;-81
2023/11/29 07:47:46;;;;;;;8.77;4.25;;;;;;;-0.57;60.49;91728.00;2051182;70;20154;-82
2023/11/29 07:50:14;;;;;;;6.55;3.47;;;;;;;-0.40;61.46;91730.13;2051278;70;20603;-81
2023/11/29 07:52:43;;;;;;;5.43;2.60;;;;;;;-0.47;59.55;91741.22;2051266;70;20614;-82
2023/11/29 07:55:08;;;;;;;3.35;1.95;;;;;;;-0.53;59.40;91744.22;2051311;70;20702;-82
2023/11/29 07:57:34;;;;;;;5.20;2.30;;;;;;;-0.22;59.89;91741.97;2051437;70;20222;-81
2023/11/29 08:00:05;;;;;;;4.70;2.10;;;;;;;0.03;60.15;91739.19;2047967;70;20161;-82
2023/11/29 08:02:38;;;;;;;4.85;2.00;;;;;;;-0.33;58.81;91740.38;2051047;70;20510;-80
2023/11/29 08:05:04;;;;;;;5.93;2.53;;;;;;;-0.55;58.14;91744.78;2051124;70;20671;-80
2023/11/29 08:07:32;;;;;;;7.57;2.25;;;;;;;0.07;59.18;91749.88;2051316;70;20150;-80
2023/11/29 08:10:01;;;;;;;4.57;2.55;;;;;;;0.07;57.58;91749.88;2051167;70;20142;-79
2023/11/29 08:12:27;;;;;;;6.80;2.40;;;;;;;-0.07;57.00;91743.88;2051311;70;20341;-79
2023/11/29 08:14:53;;;;;;;7.65;2.10;;;;;;;-0.13;56.88;91744.13;2051096;70;20150;-80
2023/11/29 08:17:19;;;;;;;2.45;1.95;;;;;;;0.26;57.35;91744.53;2050989;70;20224;-80
2023/11/29 08:19:45;;;;;;;4.18;2.28;;;;;;;0.03;56.81;91747.50;2051289;70;20507;-80
2023/11/29 08:22:11;;;;;;;3.85;2.22;;;;;;;-0.04;58.27;91746.25;2051168;70;20154;-80
2023/11/29 08:24:37;;;;;;;3.58;1.98;;;;;;;-0.19;57.39;91742.88;2048026;70;20170;-81
2023/11/29 08:27:03;;;;;;;2.88;1.60;;;;;;;-0.15;57.82;91745.97;2051113;70;20166;-80
2023/11/29 08:29:29;;;;;;;4.47;1.80;;;;;;;0.26;56.04;91741.75;2051147;70;20505;-81
2023/11/29 08:31:54;;;;;;;4.97;2.00;;;;;;;0.28;55.52;91736.41;2051205;70;20162;-80
2023/11/29 08:34:20;;;;;;;4.55;2.40;;;;;;;0.22;56.18;91738.66;2051184;70;20209;-80
2023/11/29 08:36:46;;;;;;;6.22;3.03;;;;;;;0.63;57.05;91748.22;2047773;70;20156;-80
2023/11/29 08:39:11;;;;;;;6.18;2.28;;;;;;;0.91;56.61;91747.00;2051139;70;20483;-80
2023/11/29 08:41:37;;;;;;;8.70;2.40;;;;;;;1.32;57.15;91752.25;2051275;70;20154;-82
2023/11/29 08:44:04;;;;;;;6.50;2.90;;;;;;;1.39;56.51;91757.72;2051135;70;20146;-80
2023/11/29 08:46:29;;;;;;;7.05;3.17;;;;;;;1.44;55.74;91739.34;2051142;70;20146;-81
2023/11/29 08:48:55;;;;;;;6.85;2.70;;;;;;;1.62;55.19;91749.09;2051154;70;20480;-80
2023/11/29 08:51:20;;;;;;;8.93;2.92;;;;;;;1.24;54.41;91750.31;2047856;70;20174;-81
2023/11/29 08:53:47;;;;;;;4.32;2.30;;;;;;;1.55;54.18;91757.50;2051132;70;20146;-81
2023/11/29 08:56:16;;;;;;;5.70;2.30;;;;;;;1.20;53.06;91741.69;2050075;70;20158;-81
2023/11/29 08:58:44;;;;;;;4.93;2.35;;;;;;;0.87;54.85;91737.63;2051219;70;20153;-80
2023/11/29 09:01:19;;;;;;;6.88;2.40;;;;;;;1.44;55.43;91733.78;2051339;70;20147;-80
2023/11/29 09:03:45;;;;;;;4.93;2.00;;;;;;;1.51;53.53;91739.25;2050953;70;20146;-80
2023/11/29 09:06:11;;;;;;;3.92;2.30;;;;;;;1.92;52.02;91747.91;2051123;70;20143;-86
2023/11/29 09:08:37;;;;;;;3.03;1.80;;;;;;;1.97;53.03;91740.59;2051109;70;20162;-83
2023/11/29 09:11:04;;;;;;;3.10;1.90;;;;;;;2.48;51.71;91736.84;2051064;70;20153;-81
2023/11/29 09:13:30;;;;;;;6.00;2.45;;;;;;;2.42;51.63;91733.59;2051147;70;20607;-83
2023/11/29 09:15:56;;;;;;;4.13;2.47;;;;;;;2.46;51.90;91749.81;2051117;70;20153;-83
2023/11/29 09:18:22;;;;;;;8.23;2.80;;;;;;;2.91;51.25;91745.50;2050993;70;20689;-82
2023/11/29 09:20:48;;;;;;;9.63;2.80;;;;;;;3.41;53.03;91738.63;2051076;70;20212;-82
2023/11/29 09:23:13;;;;;;;7.20;2.70;;;;;;;3.60;53.54;91735.78;2051116;70;20238;-83
2023/11/29 09:25:39;;;;;;;11.90;2.95;;;;;;;3.73;51.14;91740.88;2051228;70;20176;-82
2023/11/29 09:28:06;;;;;;;7.00;2.60;;;;;;;3.86;51.57;91748.03;2051211;70;20162;-81
2023/11/29 09:30:33;;;;;;;8.45;3.78;;;;;;;3.84;51.36;91747.88;2051272;70;20154;-82
2023/11/29 09:32:58;;;;;;;6.85;3.10;;;;;;;4.76;50.48;91745.72;2050927;70;20249;-85
2023/11/29 09:35:24;;;;;;;9.13;2.90;;;;;;;3.83;49.34;91746.44;2048011;70;20225;-84
2023/11/29 09:37:50;;;;;;;14.35;7.40;;;;;;;4.13;49.98;91758.22;2051143;70;20146;-85
2023/11/29 09:40:16;;;;;;;7.03;3.22;;;;;;;4.69;48.54;91755.75;2051188;70;20151;-83
2023/11/29 09:42:43;;;;;;;15.73;3.95;;;;;;;4.64;48.42;91754.00;2051024;70;20146;-84
2023/11/29 09:45:20;;;;;;;7.28;2.88;;;;;;;4.70;48.51;91748.84;2050999;70;20177;-82
2023/11/29 09:47:47;;;;;;;5.93;2.58;;;;;;;4.92;47.53;91749.59;2050839;70;20206;-81
2023/11/29 09:50:13;;;;;;;6.20;1.90;;;;;;;5.38;48.73;91742.03;2049869;70;20538;-85
2023/11/29 09:52:41;;;;;;;13.35;4.72;;;;;;;6.13;47.27;91743.25;2051092;70;20150;-85
2023/11/29 09:55:07;;;;;;;19.05;6.93;;;;;;;6.04;47.30;91745.53;2051089;70;20169;-86
2023/11/29 09:57:33;;;;;;;51.22;15.82;;;;;;;5.36;46.74;91737.06;2051109;70;20551;-84
2023/11/29 09:59:59;;;;;;;23.30;7.15;;;;;;;5.49;47.22;91730.91;2051127;70;20208;-84
2023/11/29 10:02:25;;;;;;;11.95;4.40;;;;;;;6.00;47.39;91731.34;2050856;70;20165;-83
2023/11/29 10:04:51;;;;;;;10.80;4.20;;;;;;;6.60;46.39;91730.75;2050956;70;20142;-82
2023/11/29 10:07:17;;;;;;;12.88;3.45;;;;;;;7.06;44.99;91726.44;2051181;70;20150;-86
2023/11/29 10:09:42;;;;;;;17.23;4.28;;;;;;;6.03;45.80;91732.16;2051173;70;20142;-84
2023/11/29 10:12:08;;;;;;;4.40;1.70;;;;;;;6.13;44.44;91723.69;2051189;70;20556;-87
2023/11/29 10:14:43;;;;;;;5.53;1.90;;;;;;;6.81;44.08;91726.34;2051062;70;20147;-81
2023/11/29 10:17:14;;;;;;;4.55;2.38;;;;;;;7.30;43.92;91720.75;2050913;70;20150;-86
2023/11/29 10:19:40;;;;;;;7.07;3.10;;;;;;;7.03;42.48;91721.31;2051013;70;20601;-86
2023/11/29 10:22:06;;;;;;;7.97;2.40;;;;;;;7.51;43.71;91711.41;2047818;70;20639;-88
2023/11/29 10:24:32;;;;;;;8.02;2.20;;;;;;;8.02;43.59;91703.75;2047789;70;20177;-87
2023/11/29 10:26:58;;;;;;;9.80;3.25;;;;;;;10.41;41.72;91712.75;2051042;70;20170;-88
2023/11/29 10:29:23;;;;;;;3.17;1.70;;;;;;;11.39;39.12;91711.38;2051081;70;20595;-85
2023/11/29 10:31:51;;;;;;;7.18;1.90;;;;;;;11.19;39.89;91703.53;2051066;70;20158;-88
2023/11/29 10:34:19;;;;;;;3.10;1.40;;;;;;;12.03;38.06;91706.22;2050961;70;20153;-86
2023/11/29 10:36:46;;;;;;;2.42;1.30;;;;;;;12.48;37.25;91708.66;2050948;70;20210;-90
2023/11/29 10:39:16;;;;;;;7.50;3.05;;;;;;;12.14;35.21;91703.16;2049648;70;20202;-88
2023/11/29 10:41:47;;;;;;;6.10;2.92;;;;;;;12.25;37.16;91698.63;2050978;70;20209;-83
2023/11/29 10:44:14;;;;;;;3.28;1.45;;;;;;;13.54;35.51;91703.28;2049608;70;20622;-83
2023/11/29 10:46:40;;;;;;;2.75;1.30;;;;;;;14.43;34.03;91694.84;2047599;70;20165;-83
2023/11/29 10:49:16;;;;;;;3.42;1.80;;;;;;;15.40;32.75;91690.56;2050788;70;20154;-83
2023/11/29 10:51:43;;;;;;;12.65;5.50;;;;;;;13.73;33.08;91691.91;2051021;70;20174;-82
2023/11/29 10:54:11;;;;;;;6.55;1.70;;;;;;;15.14;33.10;91684.16;2051168;70;20533;-82
2023/11/29 10:56:37;;;;;;;4.32;1.42;;;;;;;17.54;31.70;91692.63;2051019;70;20142;-83
2023/11/29 10:59:28;;;;;;;1.42;1.05;;;;;;;19.17;30.79;91694.56;2050793;70;20460;-83
2023/11/29 11:01:55;;;;;;;1.17;0.90;;;;;;;19.88;27.27;91682.56;2050779;70;20143;-84
2023/11/29 11:04:22;;;;;;;7.85;2.15;;;;;;;17.10;27.89;91683.97;2050771;70;20318;-83
2023/11/29 11:06:49;;;;;;;18.48;2.75;;;;;;;19.11;30.52;91685.22;2050938;70;20244;-83
2023/11/29 11:09:31;;;;;;;15.13;2.30;;;;;;;20.23;29.16;91675.75;2050878;70;20171;-83
2023/11/29 11:11:58;;;;;;;10.60;2.10;;;;;;;19.99;27.60;91686.97;2047626;70;20126;-83
2023/11/29 11:14:45;;;;;;;5.35;1.90;;;;;;;15.34;29.93;91679.03;2050874;70;20272;-82
2023/11/29 11:17:13;;;;;;;27.75;16.20;;;;;;;13.78;31.90;91675.09;2050652;70;20153;-82
2023/11/29 11:19:43;;;;;;;108.63;70.45;;;;;;;12.81;33.38;91668.25;2050816;70;20181;-81
2023/11/29 11:22:11;;;;;;;6.88;2.03;;;;;;;11.28;35.81;91664.44;2050846;70;20138;-83
2023/11/29 11:25:03;;;;;;;12.73;3.55;;;;;;;10.23;37.04;91661.28;2047537;70;20162;-81
2023/11/29 11:27:30;;;;;;;11.10;3.70;;;;;;;9.72;38.21;91664.56;2050340;70;20538;-81
2023/11/29 11:29:56;;;;;;;11.52;3.75;;;;;;;9.50;37.92;91659.31;2050890;70;20169;-81
2023/11/29 11:32:37;;;;;;;11.10;3.50;;;;;;;8.39;38.99;91655.22;2047563;70;20162;-82
2023/11/29 11:35:21;;;;;;;7.93;3.60;;;;;;;7.48;39.22;91653.84;2050859;70;20151;-80
2023/11/29 11:37:53;;;;;;;12.25;4.57;;;;;;;6.98;39.80;91661.59;2050707;70;20636;-82
2023/11/29 11:40:20;;;;;;;15.30;4.40;;;;;;;6.63;42.22;91658.88;2050760;70;20165;-79
2023/11/29 11:42:47;;;;;;;10.57;4.30;;;;;;;6.51;42.68;91647.00;2050883;70;20178;-81
2023/11/29 11:45:13;;;;;;;16.75;5.25;;;;;;;6.36;43.03;91648.94;2050778;70;20154;-83
2023/11/29 11:47:41;;;;;;;16.52;6.53;;;;;;;6.49;43.75;91647.59;2050601;70;20142;-79
2023/11/29 11:50:08;;;;;;;16.17;5.50;;;;;;;6.21;43.77;91635.47;2050751;70;20209;-80
2023/11/29 11:52:35;;;;;;;16.23;4.70;;;;;;;6.32;45.03;91631.97;2050919;70;20606;-81
2023/11/29 11:55:05;;;;;;;11.45;4.70;;;;;;;6.13;45.42;91631.47;2050667;70;20222;-81
2023/11/29 11:57:31;;;;;;;32.92;13.68;;;;;;;4.70;46.74;91623.38;2050830;70;20229;-81